Orlando, Florida
Traffic Map
Current Weather Conditions
Orlando, Florida
Clear
Clear
66°
Feels Like: 66°
Wind Chill: 66° Ceiling: Unl
Heat Index: 66° Visibility: 10mi
Dew Point: 37° Wind: 10mph
Humidity: 34% Direction: 300° (WNW)
Pressure: 30.18in Gusts: 0mph
Raw Report DataKORL 272153Z 30009KT 10SM CLR 19/03 A3018 RMK AO2 SLP225 T01890028
Traffic Incident Summary
Active as of:
Severity:
Category:
InformationThere was an issue retrieving the traffic information for this location. Please try a different location or try again shortly.
Advertisements
Track Severe Weather on mobile